aviador You're here:

LFLY Decoded Metar

LYON BRON in FRANCE
Report Time2017-12-16 16:30:00
UTC Time2017-12-16 16:51:54
Flight Rules mvfr MVFR
Wind330° at 11 kt
W.Decomp.*RWY 34: 10.8 kt HW 1.9 kt LCW
W.Rank330° ranks 8
Current wind is above 330° avg. (7.0)
Visibility9000 m
Phenomena:Rain
Clouds:Broken 016 Hf
Broken 022 Hf
Overcast 028 Hf
Expected CloudBase > 400 ft AGL from Temp-Dew spread
Ceiling1,600 ft
Temp03°C (ISA -11)
Dew Point02°C (93% RH)
AAT-2.6°C
QNH1019 hPa
Density Alt-741 ft
Elevation659 ft
Report Wrong Elevation
Raw Report
LFLY 161630Z AUTO 33011KT 9000 RA BKN016 BKN022 OVC028 03/02 Q1019
TEMPO NSW=

Extra information for LFLY:More info

Metar Taf Metar & Taf Last 4 Metars F.Rules Stats Wind Profile Meteogram Temp Stats Airport Information Weather charts Add Link Nearby VenuesMetar ALERT Operation Metar Decoded Social comments